Tiempo atmosférico en la estación meteorológica de Mosqueruela, Teruel (1505 m.)



Fecha
DESCASC
Temp. máxima en grados centígrados (hora)
DESCASC
Temp. mínima en grados centígrados (hora)
DESCASC
Temp. media en grados centígrados
DESCASC
Racha de viento máxima en m/sg (hora)
DESCASC
Velocidad máxima media en intervalos de 10 minutos(hora)
DESCASC
Precipitaciones diarias en mm
DESCASC
Precipitaciones de 00:00 a 06:00 en mm
DESCASC
Precipitaciones de 06:00 a 12:00 en mm
DESCASC
Precipitaciones de 12:00 a 18:00 en mm
DESCASC
Precipitaciones de 18:00 a 24:00 en mm
DESCASC
14-01-2021 8.7 (12:20) 1.5 (23:59) 5.1 25.83 (22:10) 19.17 (22:10) 0 0 0 0 0
28-12-2020 2.7 (04:10) -1.6 (-00:0) 0.6 28.33 (08:20) 17.78 (10:20) 1.2 0 1.2 0 0
15-01-2021 2.4 (14:30) -1.6 (-00:0) 0.4 23.61 (00:10) 17.5 (19:00) 0 0 0 0 0
03-01-2021 -1.5 (15:10) -6.6 (-00:0) -4 23.06 (08:00) 16.67 (07:50) 0 0 0 0 0
13-01-2021 7.6 (16:10) 1.3 (00:00) 4.4 20.56 (01:00) 16.39 (01:00) 0 0 0 0 0
16-01-2021 6.2 (12:50) -2.8 (-00:0) 1.7 21.11 (01:40) 16.11 (05:10) 0 0 0 0 0
02-01-2021 -3.6 (12:30) -6.9 (-00:0) -5.3 22.22 (19:00) 15.83 (19:10) 0 0 0 0 0
24-01-2021 6.6 (01:10) 0.7 (00:00) 3.6 23.61 (03:00) 15 (13:10) 1.2 0.8 0.4 0 0
12-01-2021 4.8 (12:10) -5.9 (-00:0) -0.5 19.17 (17:30) 15 (17:40) 0 0 0 0 0
18-01-2021 9 (15:50) -2.9 (-00:0) 3 19.17 (01:40) 14.72 (01:40) 0 0 0 0 0
23-01-2021 5.5 (23:59) -0.8 (-00:0) 2.3 23.61 (09:20) 14.44 (03:30) 0.2 0 0 0 0.2
26-01-2021 8.4 (14:10) 0 (00:00) 4.2 19.72 (00:40) 14.17 (00:40) 0 0 0 0 0
21-01-2021 7.4 (14:10) 2.9 (00:00) 5.2 21.11 (09:50) 14.17 (08:00) 0 0 0 0 0
30-12-2020 0.5 (15:50) -4.5 (-00:0) -2 19.44 (01:40) 13.33 (03:00) 0 0 0 0 0
17-01-2021 7.8 (13:00) 2.5 (00:00) 5.2 18.61 (15:40) 13.33 (16:00) 0 0 0 0 0
25-01-2021 9.5 (14:20) 1.3 (00:00) 5.4 19.72 (20:20) 13.06 (20:10) 3.2 0 0 2 1.2
22-01-2021 6 (07:20) 0.1 (00:00) 3.1 21.94 (13:10) 12.78 (10:30) 5.6 0 5.2 0.4 0
01-01-2021 -1.2 (04:20) -4.4 (-00:0) -2.8 18.33 (19:20) 12.78 (10:50) 0 0 0 0 0
31-12-2020 4.9 (13:50) -3 (-00:0) 1 15.56 (02:20) 12.5 (02:20) 0 0 0 0 0
20-01-2021 5 (04:30) 1.7 (00:00) 3.4 20.56 (12:50) 12.5 (12:50) 0 0 0 0 0
11-01-2021 -0.1 (15:10) -8.8 (-00:0) -4.5 15.28 (20:40) 12.22 (20:40) 0 0 0 0 0
29-12-2020 0.9 (13:40) -3.3 (-00:0) -1.2 18.89 (09:30) 11.94 (10:30) 0 0 0 0 0
05-01-2021 -0.9 (12:20) -8.4 (-00:0) -4.6 16.67 (07:10) 11.94 (10:30) 0 0 0 0 0
04-01-2021 -1.3 (15:00) -5.8 (-00:0) -3.6 15.56 (00:30) 10.83 (00:30) 0 0 0 0 0
10-01-2021 1 (13:10) -7.2 (23:00) -3.1 7.78 (19:10) 6.39 (19:10) 0.8 0 0 0.8 0
19-01-2021 11.6 (12:30) -2.4 (-00:0) 4.6 7.78 (21:00) 5.83 (21:10) 0 0 0 0 0
06-01-2021 2.1 (13:10) -8.4 (-00:0) -3.1 7.22 (05:50) 4.72 (05:50) 0 0 0 0 0
07-01-2021 -2 (13:10) -6 (-00:0) -4 7.22 (23:10) 4.44 (22:20) 3.6 0 0 1.8 1.8
08-01-2021 -1.3 (12:30) -5.4 (-00:0) -3.4 6.11 (18:40) 3.89 (04:20) 9.8 0 1.2 2.8 5.8
09-01-2021 -0.5 (13:10) -5.9 (-00:0) -3.2 5.28 (09:10) 2.78 (03:40) 26.2 6.6 8.4 8.6 2.6

Gráficas

Temp. máximas Temp. mínimas Temp. medias Precipitaciones Rachas de viento máximas Velocidades máximas media en intervalos de 10 minutos

Datos horarios

Fecha y hora oficial Temperatura (ºC) Velocidad del viento (km/h) Dirección del viento Racha (km/h) Dirección de racha Precipitación (mm) Presión (hPa) Tendencia (hPa) Humedad (%)
2021-01-26 23:00:00 7.2 15 Noroeste 46 Noroeste 0 -- -- 89
2021-01-26 22:00:00 6.9 16 Oeste 41 Oeste 0 -- -- 92
2021-01-26 21:00:00 6.7 15 Oeste 41 Oeste 0 -- -- 93
2021-01-26 20:00:00 6.9 24 Oeste 44 Oeste 0 -- -- 90
2021-01-26 19:00:00 7 22 Oeste 38 Oeste 0 -- -- 87
2021-01-26 18:00:00 7.2 24 Oeste 47 Oeste 0 -- -- 84
2021-01-26 17:00:00 7.4 27 Oeste 45 Oeste 0 -- -- 81
2021-01-26 16:00:00 7.5 29 Oeste 51 Oeste 0 -- -- 82
2021-01-26 15:00:00 6.8 21 Oeste 38 Noroeste 0 -- -- 86
2021-01-26 14:00:00 8.1 13 Noroeste 32 Oeste 0 -- -- 78
2021-01-26 13:00:00 7.4 24 Oeste 45 Oeste 0 -- -- 81
2021-01-26 12:00:00 7.4 30 Oeste 51 Oeste 0 -- -- 78
2021-01-26 11:00:00 6.6 32 Oeste 53 Oeste 0 -- -- 79
2021-01-26 10:00:00 6.1 29 Oeste 49 Oeste 0 -- -- 62
2021-01-26 09:00:00 4.4 25 Oeste 44 Oeste 0 -- -- 55
2021-01-26 08:00:00 4 24 Oeste 48 Oeste 0 -- -- 52
2021-01-26 07:00:00 2.4 6 Noroeste 26 Noroeste 0 -- -- 59
2021-01-26 06:00:00 0.9 10 Norte 22 Noroeste 0 -- -- 69
2021-01-26 05:00:00 0 2 Oeste 18 Sudoeste 0 -- -- 79
2021-01-26 04:00:00 3.3 5 Noroeste 39 Oeste 0 -- -- 56
2021-01-26 03:00:00 4 32 Oeste 67 Oeste 0 -- -- 53
2021-01-26 02:00:00 4.1 44 Oeste 66 Oeste 0 -- -- 55
2021-01-26 01:00:00 3.1 48 Oeste 71 Oeste 0 -- -- 65
2021-01-26 00:00:00 3.5 40 Oeste 59 Noroeste 0 -- -- 63
2021-01-25 23:00:00 3.6 41 Oeste 59 Oeste 0 -- -- 56
2021-01-25 22:00:00 3 43 Oeste 59 Oeste 0 -- -- 81
2021-01-25 21:00:00 3.9 42 Oeste 71 Oeste 0 -- -- 82
2021-01-25 20:00:00 4.9 43 Oeste 67 Oeste 0 -- -- 85
2021-01-25 19:00:00 4.6 36 Oeste 62 Oeste 1.2 -- -- 90
2021-01-25 18:00:00 6.2 25 Oeste 53 Oeste 1.4 -- -- 89
2021-01-25 17:00:00 6.9 23 Oeste 47 Oeste 0.6 -- -- 87
2021-01-25 16:00:00 8.3 14 Oeste 50 Noroeste 0 -- -- 83
2021-01-25 15:00:00 8.9 14 Sudoeste 42 Sudoeste 0 -- -- 77
2021-01-25 14:00:00 8.8 14 Oeste 60 Oeste 0 -- -- 76
2021-01-25 13:00:00 8.3 31 Sudoeste 61 Sudoeste 0 -- -- 76
2021-01-25 12:00:00 7.8 27 Oeste 64 Sudoeste 0 -- -- 79
2021-01-25 11:00:00 6.8 18 Oeste 53 Sudoeste 0 -- -- 80
2021-01-25 10:00:00 5.4 21 Oeste 58 Oeste 0 -- -- 84
2021-01-25 09:00:00 5 24 Sudoeste 58 Oeste 0 -- -- 83
2021-01-25 08:00:00 4.5 31 Sudoeste 59 Oeste 0 -- -- 85
2021-01-25 07:00:00 3.9 32 Sudoeste 68 Oeste 0 -- -- 85
2021-01-25 06:00:00 3.3 17 Sudoeste 39 Sudoeste 0 -- -- 85
2021-01-25 05:00:00 3.3 14 Oeste 39 Oeste 0 -- -- 80
2021-01-25 04:00:00 1.9 9 Este 27 Este 0 -- -- 78
2021-01-25 03:00:00 1.4 9 Sudeste 30 Este 0 -- -- 80
2021-01-25 02:00:00 1.4 8 Sudeste 21 Sur 0 -- -- 78
2021-01-25 01:00:00 1.9 5 Sur 28 Oeste 0 -- -- 74
2021-01-25 00:00:00 2 15 Oeste 50 Oeste 0 -- -- 76
2021-01-24 23:00:00 2.1 8 Oeste 32 Sudoeste 0 -- -- 76
2021-01-24 22:00:00 1.9 5 Sur 21 Sur 0 -- -- 78
2021-01-24 21:00:00 1.6 5 Sudeste 21 Sudeste 0 -- -- 76
2021-01-24 20:00:00 1.8 8 Noroeste 23 Noroeste 0 -- -- 74
2021-01-24 19:00:00 1.7 4 Sudoeste 23 Oeste 0 -- -- 72
2021-01-24 18:00:00 3.2 14 Oeste 31 Oeste 0 -- -- 67
2021-01-24 17:00:00 5.1 18 Oeste 34 Oeste 0 -- -- 57
2021-01-24 16:00:00 5.9 19 Oeste 71 Oeste 0 -- -- 58
2021-01-24 15:00:00 4.9 43 Oeste 72 Oeste 0 -- -- 60
2021-01-24 14:00:00 4.5 48 Oeste 78 Oeste 0 -- -- 64
2021-01-24 13:00:00 3.6 46 Oeste 82 Oeste 0 -- -- 69
2021-01-24 12:00:00 2.8 37 Oeste 72 Oeste 0.2 -- -- 79
2021-01-24 11:00:00 2.1 36 Oeste 73 Oeste 0.2 -- -- 83
2021-01-24 10:00:00 2 33 Oeste 69 Noroeste 0 -- -- 85
2021-01-24 09:00:00 2.3 31 Oeste 65 Oeste 0 -- -- 82
2021-01-24 08:00:00 2.7 29 Oeste 63 Oeste 0 -- -- 78
2021-01-24 07:00:00 3 29 Oeste 64 Sudoeste 0 -- -- 77
2021-01-24 06:00:00 3.2 30 Oeste 59 Oeste 0 -- -- 72
2021-01-24 05:00:00 3.3 31 Oeste 70 Sudoeste 0 -- -- 77
2021-01-24 04:00:00 4 41 Oeste 75 Oeste 0 -- -- 74
2021-01-24 03:00:00 5.5 47 Oeste 85 Sudoeste 0.2 -- -- 79
2021-01-24 02:00:00 5.9 36 Oeste 71 Sudoeste 0.6 -- -- 87
2021-01-24 01:00:00 6.5 42 Sudoeste 81 Sudoeste 0 -- -- 81
2021-01-24 00:00:00 5.5 46 Sudoeste 80 Sudoeste 0 -- -- 85
2021-01-23 23:00:00 4.3 42 Sudoeste 71 Oeste 0.2 -- -- 90
2021-01-23 22:00:00 3.9 39 Sudoeste 72 Sudoeste 0 -- -- 88
2021-01-23 21:00:00 3.4 38 Sudoeste 66 Sudoeste 0 -- -- 88
2021-01-23 20:00:00 3.4 45 Sudoeste 75 Sudoeste 0 -- -- 85
2021-01-23 19:00:00 3 43 Sudoeste 77 Sudoeste 0 -- -- 82
2021-01-23 18:00:00 2.6 39 Oeste 68 Oeste 0 -- -- 81
2021-01-23 17:00:00 2.9 36 Oeste 72 Sudoeste 0 -- -- 81
2021-01-23 16:00:00 3 40 Oeste 78 Sudoeste 0 -- -- 78
2021-01-23 15:00:00 5.2 37 Oeste 64 Sudoeste 0 -- -- 65
2021-01-23 14:00:00 4.4 37 Oeste 77 Oeste 0 -- -- 64
2021-01-23 13:00:00 3.1 40 Oeste 72 Sudoeste 0 -- -- 66
2021-01-23 12:00:00 2.7 34 Oeste 64 Sudoeste 0 -- -- 66
2021-01-23 11:00:00 2 31 Oeste 67 Oeste 0 -- -- 65
2021-01-23 10:00:00 1.5 40 Oeste 85 Oeste 0 -- -- 66
2021-01-23 09:00:00 -0.1 41 Oeste 67 Oeste 0 -- -- 70
2021-01-23 08:00:00 -0.4 36 Oeste 67 Oeste 0 -- -- 71
2021-01-23 07:00:00 -0.7 31 Oeste 65 Oeste 0 -- -- 76
2021-01-23 06:00:00 -0.3 31 Oeste 71 Oeste 0 -- -- 72
2021-01-23 05:00:00 -0.4 48 Oeste 84 Sudoeste 0 -- -- 74
2021-01-23 04:00:00 -0.6 45 Oeste 78 Oeste 0 -- -- 77
2021-01-23 03:00:00 -0.5 48 Oeste 78 Sudoeste 0 -- -- 77
2021-01-23 02:00:00 -0.2 36 Oeste 69 Oeste 0 -- -- 72
2021-01-23 01:00:00 -0.2 33 Oeste 61 Sudoeste 0 -- -- 76
2021-01-23 00:00:00 0.1 31 Oeste 63 Oeste 0 -- -- 74
2021-01-22 23:00:00 0.6 33 Oeste 68 Oeste 0 -- -- 73
2021-01-22 22:00:00 0.8 32 Oeste 71 Oeste 0 -- -- 75
2021-01-22 21:00:00 0.8 33 Oeste 68 Oeste 0 -- -- 76
2021-01-22 20:00:00 0.9 33 Oeste 68 Oeste 0 -- -- 77
2021-01-22 19:00:00 1.2 35 Oeste 66 Oeste 0 -- -- 73
2021-01-22 18:00:00 1.5 24 Oeste 56 Oeste 0 -- -- 75
2021-01-22 17:00:00 2.1 30 Oeste 59 Oeste 0 -- -- 75
2021-01-22 16:00:00 3.4 30 Oeste 65 Oeste 0 -- -- 66
2021-01-22 15:00:00 3.6 31 Oeste 64 Sudoeste 0 -- -- 67
2021-01-22 14:00:00 3.3 32 Oeste 79 Oeste 0.4 -- -- 72
2021-01-22 13:00:00 2.6 40 Sudoeste 71 Sudoeste 0 -- -- 78
2021-01-22 12:00:00 2.9 44 Sudoeste 74 Sudoeste 0 -- -- 78
2021-01-22 11:00:00 2 39 Sudoeste 77 Sudoeste 0 -- -- 78
2021-01-22 10:00:00 1.7 40 Oeste 73 Sudoeste 0.4 -- -- 83
2021-01-22 09:00:00 0.3 36 Oeste 75 Sudoeste 4.6 -- -- 95
2021-01-22 08:00:00 5.3 28 Sudoeste 78 Sur 0.2 -- -- 88
2021-01-22 07:00:00 5.7 29 Sudoeste 63 Sudoeste 0 -- -- 86
2021-01-22 06:00:00 5.6 27 Sudoeste 66 Sudoeste 0 -- -- 89
2021-01-22 05:00:00 5.4 33 Sudoeste 54 Sudoeste 0 -- -- 90
2021-01-22 04:00:00 5.2 32 Sudoeste 62 Sudoeste 0 -- -- 92
2021-01-22 03:00:00 5.5 40 Sudoeste 62 Sudoeste 0 -- -- 89
2021-01-22 02:00:00 5 40 Sudoeste 70 Sudoeste 0 -- -- 91
2021-01-22 01:00:00 5 37 Sudoeste 62 Sudoeste 0 -- -- 88
2021-01-22 00:00:00 4.9 28 Sudoeste 63 Sudoeste 0 -- -- 89
2021-01-21 23:00:00 5 33 Sudoeste 63 Sudoeste 0 -- -- 87
2021-01-21 22:00:00 5.4 35 Sudoeste 69 Sudoeste 0 -- -- 83
2021-01-21 21:00:00 5.2 36 Sudoeste 74 Oeste 0 -- -- 81
2021-01-21 20:00:00 5.3 43 Sudoeste 74 Sudoeste 0 -- -- 80
2021-01-21 19:00:00 5.1 39 Sudoeste 67 Sudoeste 0 -- -- 81
2021-01-21 18:00:00 4.7 30 Sudoeste 59 Sudoeste 0 -- -- 82
2021-01-21 17:00:00 4.8 21 Sudoeste 42 Sudoeste 0 -- -- 79
2021-01-21 16:00:00 5.9 10 Sudoeste 47 Sudoeste 0 -- -- 70
2021-01-21 15:00:00 6.9 15 Sudoeste 49 Oeste 0 -- -- 68
2021-01-21 14:00:00 7.2 27 Sudoeste 45 Sudoeste 0 -- -- 65
2021-01-21 13:00:00 6.4 9 Sur 75 Sudoeste 0 -- -- 69
2021-01-21 12:00:00 5.8 50 Sudoeste 73 Oeste 0 -- -- 71
2021-01-21 11:00:00 5.4 23 Oeste 59 Oeste 0 -- -- 72
2021-01-21 10:00:00 4.6 49 Oeste 76 Oeste 0 -- -- 75
2021-01-21 09:00:00 3.9 46 Oeste 73 Oeste 0 -- -- 77
2021-01-21 08:00:00 3.1 51 Oeste 71 Sudoeste 0 -- -- 83
2021-01-21 07:00:00 3 33 Oeste 55 Oeste 0 -- -- 85
2021-01-21 06:00:00 2.9 9 Sudoeste 44 Oeste 0 -- -- 85
2021-01-21 05:00:00 3 18 Oeste 51 Oeste 0 -- -- 85
2021-01-21 04:00:00 3.1 31 Oeste 63 Oeste 0 -- -- 84
2021-01-21 03:00:00 3.2 38 Oeste 66 Oeste 0 -- -- 84
2021-01-21 02:00:00 3.4 33 Oeste 48 Sudoeste 0 -- -- 83
2021-01-21 01:00:00 3.2 24 Sudoeste 40 Sudoeste 0 -- -- 88
2021-01-21 00:00:00 3.2 28 Sudoeste 44 Sudoeste 0 -- -- 90
2021-01-20 23:00:00 2.8 26 Sudoeste 54 Sudoeste 0 -- -- 90
2021-01-20 22:00:00 2.8 37 Sudoeste 55 Sudoeste 0 -- -- 87
2021-01-20 21:00:00 2.7 32 Sudoeste 49 Sudoeste 0 -- -- 87
2021-01-20 20:00:00 2.6 33 Sudoeste 59 Oeste 0 -- -- 91
2021-01-20 19:00:00 2.4 26 Sudoeste 44 Sudoeste 0 -- -- 92
2021-01-20 18:00:00 2.3 23 Sudoeste 65 Sur 0 -- -- 91
2021-01-20 17:00:00 3.2 31 Sudoeste 58 Sudoeste 0 -- -- 86
2021-01-20 16:00:00 2.9 38 Sudoeste 72 Sudoeste 0 -- -- 90
2021-01-20 15:00:00 2.9 30 Sudoeste 51 Sudoeste 0 -- -- 85
2021-01-20 14:00:00 3.1 25 Sudoeste 62 Sudoeste 0 -- -- 82
2021-01-20 13:00:00 3.3 42 Sudoeste 74 Sudoeste 0 -- -- 79
2021-01-20 12:00:00 3 22 Sudoeste 60 Sudoeste 0 -- -- 78
2021-01-20 11:00:00 2.1 34 Sudoeste 50 Sudoeste 0 -- -- 73
2021-01-20 10:00:00 2.7 21 Sudoeste 43 Sudoeste 0 -- -- 56
2021-01-20 09:00:00 3 27 Sudoeste 41 Sudoeste 0 -- -- 48
2021-01-20 08:00:00 3.7 20 Sudoeste 39 Sudoeste 0 -- -- 41
2021-01-20 07:00:00 3.8 26 Sur 53 Sur 0 -- -- 41
2021-01-20 06:00:00 4.4 23 Sur 37 Sudoeste 0 -- -- 36
2021-01-20 05:00:00 4.7 22 Sur 49 Sudoeste 0 -- -- 34
2021-01-20 04:00:00 4.6 21 Sudoeste 37 Sur 0 -- -- 37
2021-01-20 03:00:00 3.6 22 Sudoeste 40 Sudoeste 0 -- -- 38
2021-01-20 02:00:00 3.6 26 Sudoeste 36 Sudoeste 0 -- -- 40
2021-01-20 01:00:00 4.2 25 Sudoeste 36 Sudoeste 0 -- -- 45
2021-01-20 00:00:00 1.7 12 Sudoeste 27 Sudoeste 0 -- -- 56
2021-01-19 23:00:00 2.5 18 Sudoeste 26 Sudoeste 0 -- -- 60
2021-01-19 22:00:00 2.5 15 Sudoeste 26 Sudoeste 0 -- -- 61
2021-01-19 21:00:00 3.6 21 Sudoeste 28 Sudoeste 0 -- -- 53
2021-01-19 20:00:00 3.7 20 Sudoeste 27 Sudoeste 0 -- -- 49
2021-01-19 19:00:00 2.9 9 Sudoeste 13 Sur 0 -- -- 53
2021-01-19 18:00:00 5.5 9 Sur 18 Sudoeste 0 -- -- 45
2021-01-19 17:00:00 8.1 12 Sur 24 Sur 0 -- -- 38
2021-01-19 16:00:00 9.7 14 Sur 27 Sudoeste 0 -- -- 35
2021-01-19 15:00:00 10.3 16 Sudoeste 26 Sudoeste 0 -- -- 24
2021-01-19 14:00:00 11 12 Sudoeste 26 Sur 0 -- -- 22
2021-01-19 13:00:00 10.8 11 Sudoeste 22 Oeste 0 -- -- 23
2021-01-19 12:00:00 10.5 12 Oeste 21 Oeste 0 -- -- 21
2021-01-19 11:00:00 9.3 5 Oeste 13 Sudoeste 0 -- -- 32
2021-01-19 10:00:00 6.5 9 Sudoeste 13 Sudoeste 0 -- -- 34
2021-01-19 09:00:00 2.9 4 Sudoeste 17 Sudoeste 0 -- -- 44
2021-01-19 08:00:00 0.7 11 Sudoeste 17 Oeste 0 -- -- 47
2021-01-19 07:00:00 0.5 12 Oeste 16 Oeste 0 -- -- 39
2021-01-19 06:00:00 -0.4 3 Oeste 14 Oeste 0 -- -- 43
2021-01-19 05:00:00 0.2 13 Oeste 15 Oeste 0 -- -- 34
2021-01-19 04:00:00 0.3 5 Oeste 18 Sudoeste 0 -- -- 35
2021-01-19 03:00:00 0.4 14 Sudoeste 19 Sudoeste 0 -- -- 36
2021-01-19 02:00:00 0.7 14 Sudoeste 18 Sudoeste 0 -- -- 37
2021-01-19 01:00:00 -2.4 0 Calma 9 Sudoeste 0 -- -- 45
2021-01-19 00:00:00 -1.3 4 Sudoeste 9 Sudoeste 0 -- -- 42
2021-01-18 23:00:00 -1.7 3 Sudoeste 11 Oeste 0 -- -- 47
2021-01-18 22:00:00 -0.1 8 Sudoeste 14 Sudoeste 0 -- -- 41
2021-01-18 21:00:00 0.1 4 Norte 12 Sudoeste 0 -- -- 51
2021-01-18 20:00:00 -0.6 5 Sudoeste 8 Oeste 0 -- -- 86
2021-01-18 19:00:00 0.2 4 Oeste 8 Sudoeste 0 -- -- 86
2021-01-18 18:00:00 2.3 2 Sudoeste 8 Sudoeste 0 -- -- 79
2021-01-18 17:00:00 7.3 3 Sur 6 Sudeste 0 -- -- 61
2021-01-18 16:00:00 8.4 4 Este 10 Este 0 -- -- 56
2021-01-18 15:00:00 7.4 6 Sudeste 11 Sudeste 0 -- -- 58
2021-01-18 14:00:00 7.2 6 Sudeste 11 Este 0 -- -- 53
2021-01-18 13:00:00 8.2 4 Norte 8 Norte 0 -- -- 44
2021-01-18 12:00:00 7 5 Nordeste 8 Nordeste 0 -- -- 49
2021-01-18 11:00:00 4.8 4 Este 13 Sudeste 0 -- -- 57
2021-01-18 10:00:00 2.1 5 Sudeste 35 Oeste 0 -- -- 71
2021-01-18 09:00:00 0.5 15 Oeste 35 Oeste 0 -- -- 82
2021-01-18 08:00:00 -2 10 Oeste 18 Oeste 0 -- -- 91
2021-01-18 07:00:00 -2.3 7 Sudoeste 12 Sudoeste 0 -- -- 88
2021-01-18 06:00:00 -1.9 5 Sudoeste 12 Sudoeste 0 -- -- 87
2021-01-18 05:00:00 -1.8 6 Sudoeste 16 Sudoeste 0 -- -- 90
2021-01-18 04:00:00 -0.5 10 Noroeste 21 Oeste 0 -- -- 89
2021-01-18 03:00:00 0.8 11 Oeste 44 Oeste 0 -- -- 83
2021-01-18 02:00:00 2 36 Oeste 69 Oeste 0 -- -- 83
2021-01-18 01:00:00 2.4 50 Oeste 62 Oeste 0 -- -- 87
2021-01-18 00:00:00 2.5 42 Oeste 60 Oeste 0 -- -- 86
2021-01-17 23:00:00 2.6 33 Noroeste 48 Noroeste 0 -- -- 86
2021-01-17 22:00:00 3.2 23 Noroeste 52 Noroeste 0 -- -- 83
2021-01-17 21:00:00 3.6 33 Oeste 63 Oeste 0 -- -- 81
2021-01-17 20:00:00 3.8 37 Oeste 61 Oeste 0 -- -- 80
2021-01-17 19:00:00 3.8 37 Oeste 60 Oeste 0 -- -- 78
2021-01-17 18:00:00 3.9 33 Oeste 58 Oeste 0 -- -- 72
2021-01-17 17:00:00 5.4 37 Oeste 67 Oeste 0 -- -- 66
2021-01-17 16:00:00 6.1 48 Oeste 67 Oeste 0 -- -- 66
2021-01-17 15:00:00 7.2 33 Oeste 58 Oeste 0 -- -- 61
2021-01-17 14:00:00 7.4 23 Oeste 50 Noroeste 0 -- -- 55
2021-01-17 13:00:00 7.8 15 Noroeste 44 Noroeste 0 -- -- 57
2021-01-17 12:00:00 7.5 17 Noroeste 32 Oeste 0 -- -- 58
2021-01-17 11:00:00 6.8 18 Noroeste 43 Oeste 0 -- -- 57
2021-01-17 10:00:00 7.2 22 Oeste 39 Oeste 0 -- -- 55
2021-01-17 09:00:00 5.7 21 Oeste 42 Oeste 0 -- -- 56
2021-01-17 08:00:00 5.3 31 Oeste 58 Oeste 0 -- -- 56
2021-01-17 07:00:00 5.2 41 Oeste 56 Oeste 0 -- -- 49
2021-01-17 06:00:00 5.1 40 Oeste 59 Oeste 0 -- -- 40
2021-01-17 05:00:00 5.2 22 Oeste 38 Oeste 0 -- -- 50
2021-01-17 04:00:00 4.9 15 Oeste 27 Oeste 0 -- -- 46
2021-01-17 03:00:00 4 17 Noroeste 38 Oeste 0 -- -- 46
2021-01-17 02:00:00 4.5 27 Oeste 49 Oeste 0 -- -- 51
2021-01-17 01:00:00 4 37 Oeste 52 Oeste 0 -- -- 42
2021-01-17 00:00:00 3.9 44 Oeste 64 Oeste 0 -- -- 35
2021-01-16 23:00:00 3.6 51 Oeste 64 Oeste 0 -- -- 32
2021-01-16 22:00:00 3.5 49 Oeste 67 Oeste 0 -- -- 33
2021-01-16 21:00:00 4 52 Oeste 69 Oeste 0 -- -- 34
2021-01-16 20:00:00 3.6 55 Oeste 69 Oeste 0 -- -- 32
2021-01-16 19:00:00 3.7 54 Oeste 70 Oeste 0 -- -- 30
2021-01-16 18:00:00 4.1 55 Oeste 70 Oeste 0 -- -- 31
2021-01-16 17:00:00 4.2 46 Oeste 61 Oeste 0 -- -- 31
2021-01-16 16:00:00 5 39 Oeste 51 Oeste 0 -- -- 30
2021-01-16 15:00:00 5.9 29 Oeste 43 Noroeste 0 -- -- 30
2021-01-16 14:00:00 5.5 30 Oeste 45 Oeste 0 -- -- 32
2021-01-16 13:00:00 6 18 Oeste 35 Oeste 0 -- -- 31
2021-01-16 12:00:00 5.3 18 Noroeste 41 Oeste 0 -- -- 31
2021-01-16 11:00:00 1.9 32 Oeste 42 Oeste 0 -- -- 43
2021-01-16 10:00:00 0.2 35 Oeste 55 Oeste 0 -- -- 52
2021-01-16 09:00:00 -1 45 Oeste 55 Oeste 0 -- -- 60
2021-01-16 08:00:00 -0.5 43 Oeste 60 Oeste 0 -- -- 55
2021-01-16 07:00:00 -1.2 54 Oeste 68 Oeste 0 -- -- 63
2021-01-16 06:00:00 -1.8 53 Oeste 68 Oeste 0 -- -- 69
2021-01-16 05:00:00 -2.4 57 Oeste 68 Oeste 0 -- -- 77
2021-01-16 04:00:00 -2.6 19 Noroeste 64 Oeste 0 -- -- 79
2021-01-16 03:00:00 -1.8 40 Oeste 54 Oeste 0 -- -- 72
2021-01-16 02:00:00 -1.8 41 Oeste 76 Oeste 0 -- -- 74
2021-01-16 01:00:00 -1.6 50 Oeste 73 Oeste 0 -- -- 71
2021-01-16 00:00:00 -1.4 50 Oeste 71 Oeste 0 -- -- 72
2021-01-15 23:00:00 -1.6 33 Noroeste 53 Oeste 0 -- -- 72
2021-01-15 22:00:00 -1.2 30 Noroeste 64 Oeste 0 -- -- 70
2021-01-15 21:00:00 -0.6 47 Oeste 73 Oeste 0 -- -- 65
2021-01-15 20:00:00 0.4 57 Oeste 78 Oeste 0 -- -- 56
2021-01-15 19:00:00 0.8 63 Oeste 84 Oeste 0 -- -- 51
2021-01-15 18:00:00 1.2 37 Noroeste 77 Oeste 0 -- -- 51
2021-01-15 17:00:00 1.2 52 Oeste 78 Oeste 0 -- -- 56
2021-01-15 16:00:00 2.2 50 Oeste 77 Oeste 0 -- -- 47
2021-01-15 15:00:00 2.2 42 Oeste 72 Oeste 0 -- -- 49
2021-01-15 14:00:00 2.1 47 Oeste 80 Oeste 0 -- -- 53
2021-01-15 13:00:00 1.9 53 Oeste 73 Oeste 0 -- -- 56
2021-01-15 12:00:00 1.6 45 Oeste 67 Oeste 0 -- -- 57
2021-01-15 11:00:00 1.8 43 Oeste 70 Oeste 0 -- -- 53
2021-01-15 10:00:00 1.1 48 Oeste 66 Oeste 0 -- -- 57
2021-01-15 09:00:00 0.2 42 Oeste 64 Oeste 0 -- -- 61
2021-01-15 08:00:00 -0.3 43 Oeste 62 Oeste 0 -- -- 71
2021-01-15 07:00:00 -0.4 17 Noroeste 62 Oeste 0 -- -- 67
2021-01-15 06:00:00 0.2 45 Oeste 62 Oeste 0 -- -- 65
2021-01-15 05:00:00 0.7 26 Oeste 47 Noroeste 0 -- -- 53
2021-01-15 04:00:00 0.4 30 Noroeste 60 Oeste 0 -- -- 60
2021-01-15 03:00:00 1 51 Oeste 73 Oeste 0 -- -- 65
2021-01-15 02:00:00 1.1 55 Oeste 78 Oeste 0 -- -- 69
2021-01-15 01:00:00 1 49 Noroeste 85 Oeste 0 -- -- 82
2021-01-15 00:00:00 1.5 53 Oeste 85 Noroeste 0 -- -- 85
2021-01-14 23:00:00 2.3 45 Noroeste 93 Oeste 0 -- -- 86
2021-01-14 22:00:00 2.2 60 Oeste 90 Oeste 0 -- -- 85
2021-01-14 21:00:00 2 51 Oeste 73 Oeste 0 -- -- 86
2021-01-14 20:00:00 2.4 49 Oeste 66 Oeste 0 -- -- 80
2021-01-14 19:00:00 2.9 24 Oeste 47 Oeste 0 -- -- 37
2021-01-14 18:00:00 4.3 37 Oeste 56 Oeste 0 -- -- 30
2021-01-14 17:00:00 4.9 33 Noroeste 74 Oeste 0 -- -- 34
2021-01-14 16:00:00 5 36 Oeste 62 Oeste 0 -- -- 35
2021-01-14 15:00:00 6.1 31 Oeste 46 Oeste 0 -- -- 34
2021-01-14 14:00:00 7.5 30 Oeste 45 Noroeste 0 -- -- 28
2021-01-14 13:00:00 8 30 Oeste 40 Oeste 0 -- -- 21
2021-01-14 12:00:00 8.4 31 Oeste 50 Oeste 0 -- -- 24
2021-01-14 11:00:00 6.9 35 Oeste 50 Oeste 0 -- -- 26
2021-01-14 10:00:00 5.5 37 Oeste 53 Oeste 0 -- -- 29
2021-01-14 09:00:00 2.6 40 Oeste 56 Oeste 0 -- -- 35
2021-01-14 08:00:00 3.8 47 Oeste 55 Oeste 0 -- -- 29
2021-01-14 07:00:00 3.2 31 Oeste 47 Oeste 0 -- -- 32
2021-01-14 06:00:00 3.6 34 Oeste 46 Oeste 0 -- -- 34
2021-01-14 05:00:00 4.3 33 Oeste 45 Oeste 0 -- -- 34
2021-01-14 04:00:00 4.3 31 Oeste 49 Oeste 0 -- -- 32
2021-01-14 03:00:00 5.7 37 Oeste 48 Oeste 0 -- -- 24
2021-01-14 02:00:00 6 33 Oeste 44 Oeste 0 -- -- 21
2021-01-14 01:00:00 6.3 35 Oeste 44 Oeste 0 -- -- 22
2021-01-14 00:00:00 6.9 35 Oeste 43 Oeste 0 -- -- 26
2021-01-13 23:00:00 6.9 37 Oeste 44 Oeste 0 -- -- 27
2021-01-13 22:00:00 7.3 33 Oeste 46 Oeste 0 -- -- 25
2021-01-13 21:00:00 6.7 33 Oeste 51 Oeste 0 -- -- 25
2021-01-13 20:00:00 6.4 39 Oeste 49 Oeste 0 -- -- 26
2021-01-13 19:00:00 6.2 35 Oeste 44 Oeste 0 -- -- 27
2021-01-13 18:00:00 5.4 30 Oeste 40 Oeste 0 -- -- 31
2021-01-13 17:00:00 6.9 31 Oeste 38 Oeste 0 -- -- 29
2021-01-13 16:00:00 7.3 25 Oeste 43 Oeste 0 -- -- 31
2021-01-13 15:00:00 7 32 Oeste 43 Oeste 0 -- -- 34
2021-01-13 14:00:00 7.3 29 Oeste 43 Noroeste 0 -- -- 33
2021-01-13 13:00:00 7.3 29 Oeste 42 Oeste 0 -- -- 33
2021-01-13 12:00:00 6.9 22 Oeste 42 Oeste 0 -- -- 35
2021-01-13 11:00:00 5.7 35 Oeste 59 Oeste 0 -- -- 36
2021-01-13 10:00:00 5 44 Oeste 59 Oeste 0 -- -- 35
2021-01-13 09:00:00 4.7 48 Oeste 63 Oeste 0 -- -- 33
2021-01-13 08:00:00 3.9 51 Oeste 66 Oeste 0 -- -- 36
2021-01-13 07:00:00 3.7 52 Oeste 69 Oeste 0 -- -- 35
2021-01-13 06:00:00 3.3 51 Oeste 63 Oeste 0 -- -- 46
2021-01-13 05:00:00 2.9 48 Oeste 69 Oeste 0 -- -- 38
2021-01-13 04:00:00 1.6 55 Oeste 67 Oeste 0 -- -- 49
2021-01-13 03:00:00 2.6 51 Oeste 65 Oeste 0 -- -- 34
2021-01-13 02:00:00 1.5 50 Oeste 68 Oeste 0 -- -- 35
2021-01-13 01:00:00 1.7 59 Oeste 74 Oeste 0 -- -- 42
2021-01-13 00:00:00 2.6 44 Oeste 60 Oeste 0 -- -- 35
2021-01-12 23:00:00 2.2 37 Oeste 54 Oeste 0 -- -- 31
2021-01-12 22:00:00 0.8 29 Oeste 53 Oeste 0 -- -- 40
2021-01-12 21:00:00 2 46 Oeste 63 Oeste 0 -- -- 40
2021-01-12 20:00:00 1.6 46 Oeste 65 Noroeste 0 -- -- 43
2021-01-12 19:00:00 1.8 49 Oeste 67 Oeste 0 -- -- 41
2021-01-12 18:00:00 1.6 45 Oeste 69 Oeste 0 -- -- 42
2021-01-12 17:00:00 2.3 47 Oeste 63 Noroeste 0 -- -- 37
2021-01-12 16:00:00 3 45 Oeste 60 Oeste 0 -- -- 36
2021-01-12 15:00:00 3.1 45 Oeste 61 Oeste 0 -- -- 41
2021-01-12 14:00:00 3.3 35 Oeste 42 Oeste 0 -- -- 48
2021-01-12 13:00:00 3.3 9 Norte 26 Norte 0 -- -- 58
2021-01-12 12:00:00 4.6 9 Oeste 22 Oeste 0 -- -- 43
2021-01-12 11:00:00 1.6 16 Oeste 27 Oeste 0 -- -- 48
2021-01-12 10:00:00 -1.9 18 Norte 24 Norte 0 -- -- 51
2021-01-12 09:00:00 -2.6 6 Sur 27 Oeste 0 -- -- 39
2021-01-12 08:00:00 -0.7 20 Oeste 25 Oeste 0 -- -- 30
2021-01-12 07:00:00 -1 21 Oeste 30 Oeste 0 -- -- 32
2021-01-12 06:00:00 -2.3 19 Oeste 24 Oeste 0 -- -- 35
2021-01-12 05:00:00 -5.9 3 Noroeste 22 Oeste 0 -- -- 48
2021-01-12 04:00:00 -3.3 21 Oeste 25 Oeste 0 -- -- 38
2021-01-12 03:00:00 -3.6 19 Oeste 26 Oeste 0 -- -- 40
2021-01-12 02:00:00 -2.8 21 Oeste 29 Oeste 0 -- -- 36
2021-01-12 01:00:00 -3.9 27 Oeste 35 Oeste 0 -- -- 43
2021-01-12 00:00:00 -3 30 Oeste 41 Oeste 0 -- -- 40
2021-01-11 23:00:00 -3.1 33 Oeste 45 Oeste 0 -- -- 42
2021-01-11 22:00:00 -4.3 35 Oeste 45 Oeste 0 -- -- 52
2021-01-11 21:00:00 -4.5 38 Oeste 55 Oeste 0 -- -- 55
2021-01-11 20:00:00 -4.9 42 Oeste 52 Noroeste 0 -- -- 60
2021-01-11 19:00:00 -4.1 35 Oeste 49 Oeste 0 -- -- 63
2021-01-11 18:00:00 -3.2 36 Oeste 48 Oeste 0 -- -- 60
2021-01-11 17:00:00 -3.8 31 Oeste 39 Oeste 0 -- -- 66
2021-01-11 16:00:00 -3.3 28 Oeste 34 Oeste 0 -- -- 67
2021-01-11 15:00:00 -1.6 9 Noroeste 24 Noroeste 0 -- -- 67
2021-01-11 14:00:00 -1.3 9 Noroeste 22 Noroeste 0 -- -- 70
2021-01-11 13:00:00 -0.7 7 Oeste 17 Oeste 0 -- -- 59
2021-01-11 12:00:00 -1.5 7 Norte 30 Oeste 0 -- -- 64
2021-01-11 11:00:00 -3.7 18 Oeste 30 Oeste 0 -- -- 72
2021-01-11 10:00:00 -4.9 7 Norte 15 Norte 0 -- -- 75
2021-01-11 09:00:00 -7.1 0 Calma 16 Norte 0 -- -- 81
2021-01-11 08:00:00 -8.5 7 Nordeste 14 Nordeste 0 -- -- 92
2021-01-11 07:00:00 -8 3 Norte 13 Sudoeste 0 -- -- 91
2021-01-11 06:00:00 -8 0 Calma 20 Oeste 0 -- -- 93
2021-01-11 05:00:00 -8.1 6 Sudoeste 15 Norte 0 -- -- 96
2021-01-11 04:00:00 -5.9 3 Nordeste 9 Oeste 0 -- -- 96
2021-01-11 03:00:00 -6.5 4 Norte 15 Sudoeste 0 -- -- 92
2021-01-11 02:00:00 -6.2 8 Sudoeste 16 Sudoeste 0 -- -- 90
2021-01-11 01:00:00 -8.2 0 Calma 22 Oeste 0 -- -- 96
2021-01-11 00:00:00 -6.6 5 Norte 27 Oeste 0 -- -- 95
2021-01-10 23:00:00 -7.2 2 Norte 14 Nordeste 0 -- -- 96
2021-01-10 22:00:00 -4.9 14 Oeste 22 Oeste 0 -- -- 90
2021-01-10 21:00:00 -3.4 12 Oeste 18 Oeste 0 -- -- 89
2021-01-10 20:00:00 -3.9 5 Oeste 28 Noroeste 0 -- -- 92
2021-01-10 19:00:00 -3.8 21 Oeste 26 Noroeste 0 -- -- 92
2021-01-10 18:00:00 -3.7 21 Oeste 27 Noroeste 0 -- -- 94
2021-01-10 17:00:00 -3.2 17 Oeste 24 Oeste 0.2 -- -- 94
2021-01-10 16:00:00 -1.1 10 Noroeste 14 Noroeste 0 -- -- 88
2021-01-10 15:00:00 -0.4 5 Noroeste 13 Oeste 0 -- -- 85
2021-01-10 14:00:00 0.1 6 Noroeste 11 Oeste 0 -- -- 84
2021-01-10 13:00:00 0.4 5 Noroeste 14 Noroeste 0.6 -- -- 82
2021-01-10 12:00:00 -0.7 0 Calma -- -- 0 -- -- 86
2021-01-10 11:00:00 -2 0 Calma -- -- 0 -- -- 90
2021-01-10 10:00:00 -2.5 0 Calma 0 Calma 0 -- -- 93
2021-01-10 09:00:00 -3.6 0 Calma -- -- 0 -- -- 97
2021-01-10 08:00:00 -3.7 0 Calma -- -- 0 -- -- 98
2021-01-10 07:00:00 -3.9 0 Calma 0 Calma 0 -- -- 96
2021-01-10 06:00:00 -3.5 0 Calma -- -- 0 -- -- 96
2021-01-10 05:00:00 -3.5 0 Calma -- -- 0 -- -- 96
2021-01-10 04:00:00 -3 0 Calma -- -- 0 -- -- 93
2021-01-10 03:00:00 -2.8 0 Calma -- -- 0 -- -- 94
2021-01-10 02:00:00 -3.1 0 Calma -- -- 0 -- -- 96
2021-01-10 01:00:00 -3.3 0 Calma -- -- 0 -- -- 98
2021-01-10 00:00:00 -2.1 0 Calma -- -- 0.2 -- -- 98
2021-01-09 23:00:00 -2 0 Calma -- -- 0.8 -- -- 98
2021-01-09 22:00:00 -2.2 0 Calma -- -- 0.6 -- -- 99
2021-01-09 21:00:00 -2.6 0 Calma -- -- 0.2 -- -- 99
2021-01-09 20:00:00 -2.7 0 Calma -- -- 0.2 -- -- 99
2021-01-09 19:00:00 -2.9 0 Calma -- -- 0.6 -- -- 98
2021-01-09 18:00:00 -3 0 Calma -- -- 1 -- -- 98
2021-01-09 17:00:00 -2.3 0 Calma -- -- 1.6 -- -- 96
2021-01-09 16:00:00 -1.7 0 Calma -- -- 2 -- -- 94
2021-01-09 15:00:00 -1.5 0 Calma -- -- 1.4 -- -- 94
2021-01-09 14:00:00 -0.8 0 Calma -- -- 1.6 -- -- 94
2021-01-09 13:00:00 -0.6 0 Calma -- -- 1 -- -- 93
2021-01-09 12:00:00 -0.9 0 Calma 6 Norte 3.4 -- -- 93
2021-01-09 11:00:00 -2.6 3 Norte 8 Nordeste 2 -- -- 95
2021-01-09 10:00:00 -3.3 4 Norte 19 Noroeste 0.6 -- -- 96
2021-01-09 09:00:00 -4.2 9 Noroeste 18 Noroeste 0.2 -- -- 96
2021-01-09 08:00:00 -4.3 7 Norte 16 Norte 1 -- -- 96
2021-01-09 07:00:00 -4.7 8 Norte 15 Norte 1.2 -- -- 97
2021-01-09 06:00:00 -5.6 7 Noroeste 14 Noroeste 1.6 -- -- 95
2021-01-09 05:00:00 -5.8 9 Noroeste 15 Norte 2 -- -- 95
2021-01-09 04:00:00 -5.7 9 Norte 18 Noroeste 1.2 -- -- 95
2021-01-09 03:00:00 -5.3 8 Norte 15 Norte 0.6 -- -- 95
2021-01-09 02:00:00 -5.1 8 Norte 17 Nordeste 0.6 -- -- 96
2021-01-09 01:00:00 -5.1 4 Nordeste 15 Norte 0.6 -- -- 97
2021-01-09 00:00:00 -5.1 9 Nordeste 19 Norte 0.8 -- -- 97
2021-01-08 23:00:00 -5.1 4 Nordeste 15 Nordeste 1.2 -- -- 96
2021-01-08 22:00:00 -5.3 9 Nordeste 20 Este 1 -- -- 96
2021-01-08 21:00:00 -5.3 5 Nordeste 15 Nordeste 0.8 -- -- 96
2021-01-08 20:00:00 -5.4 10 Nordeste 19 Nordeste 0.8 -- -- 95
2021-01-08 19:00:00 -5.1 9 Nordeste 22 Nordeste 1.2 -- -- 96
2021-01-08 18:00:00 -4.6 3 Norte 6 Norte 1.2 -- -- 96
2021-01-08 17:00:00 -4.2 4 Nordeste 13 Norte 0.6 -- -- 93
2021-01-08 16:00:00 -3.7 6 Nordeste 15 Nordeste 0.4 -- -- 90
2021-01-08 15:00:00 -3.7 9 Nordeste 18 Nordeste 0.2 -- -- 93
2021-01-08 14:00:00 -3.2 9 Nordeste 20 Nordeste 0 -- -- 93
2021-01-08 13:00:00 -1.9 8 Nordeste 12 Nordeste 0.4 -- -- 90
2021-01-08 12:00:00 -2.1 3 Nordeste 5 Nordeste 0.6 -- -- 89
2021-01-08 11:00:00 -2.4 0 Calma 4 Norte 0.4 -- -- 88
2021-01-08 10:00:00 -3.4 2 Norte 5 Norte 0 -- -- 87
2021-01-08 09:00:00 -4.4 0 Calma 5 Norte 0 -- -- 90
2021-01-08 08:00:00 -5 0 Calma 7 Noroeste 0.2 -- -- 94
2021-01-08 07:00:00 -4.8 0 Calma 9 Norte 0 -- -- 94
2021-01-08 06:00:00 -4.7 3 Nordeste 15 Noroeste 0 -- -- 92
2021-01-08 05:00:00 -4.5 10 Noroeste 21 Noroeste 0 -- -- 91
2021-01-08 04:00:00 -4.8 12 Noroeste 19 Noroeste 0 -- -- 91
2021-01-08 03:00:00 -4.7 13 Noroeste 20 Noroeste 0 -- -- 90
2021-01-08 02:00:00 -4.7 10 Noroeste 17 Noroeste 0 -- -- 91
2021-01-08 01:00:00 -4.8 9 Noroeste 17 Noroeste 0 -- -- 92
2021-01-08 00:00:00 -4.9 9 Noroeste 26 Noroeste 0.2 -- -- 91
2021-01-07 23:00:00 -4.8 14 Noroeste 25 Noroeste 0 -- -- 91
2021-01-07 22:00:00 -4.7 14 Noroeste 22 Noroeste 0.2 -- -- 91
2021-01-07 21:00:00 -4.6 13 Noroeste 23 Noroeste 0.2 -- -- 92
2021-01-07 20:00:00 -4.5 15 Noroeste 21 Noroeste 0.6 -- -- 92
2021-01-07 19:00:00 -4.5 14 Noroeste 23 Noroeste 0.6 -- -- 93
2021-01-07 18:00:00 -4.2 11 Noroeste 16 Oeste 0.4 -- -- 93
2021-01-07 17:00:00 -4 6 Norte 17 Oeste 0.6 -- -- 94
2021-01-07 16:00:00 -3.7 8 Oeste 15 Norte 0.6 -- -- 91
2021-01-07 15:00:00 -3.6 7 Norte 12 Nordeste 0.2 -- -- 90
2021-01-07 14:00:00 -2.3 5 Norte 12 Norte 0 -- -- 75
2021-01-07 13:00:00 -2.1 6 Nordeste 16 Nordeste 0 -- -- 74
2021-01-07 12:00:00 -2.4 5 Norte 10 Norte 0 -- -- 79
2021-01-07 11:00:00 -3.2 6 Norte 9 Norte 0 -- -- 82
2021-01-07 10:00:00 -3.7 5 Norte 9 Norte 0 -- -- 86
2021-01-07 09:00:00 -5.3 4 Norte 7 Norte 0 -- -- 93
2021-01-07 08:00:00 -5.2 3 Norte 7 Norte 0 -- -- 92
2021-01-07 07:00:00 -4.9 0 Calma 5 Norte 0 -- -- 93
2021-01-07 06:00:00 -4.9 4 Norte 6 Norte 0 -- -- 92
2021-01-07 05:00:00 -4.9 3 Sudoeste 6 Sudoeste 0 -- -- 91
2021-01-07 04:00:00 -6 0 Calma 4 Sur 0 -- -- 92
2021-01-07 03:00:00 -5.5 2 Sudoeste 4 Sudoeste 0 -- -- 93
2021-01-07 02:00:00 -4.8 0 Calma 4 Sur 0 -- -- 93
2021-01-07 01:00:00 -5.2 0 Calma 5 Oeste 0 -- -- 90
2021-01-07 00:00:00 -5.1 4 Sudoeste 7 Sudoeste 0 -- -- 90
2021-01-06 23:00:00 -5.3 3 Oeste 7 Sudoeste 0 -- -- 89
2021-01-06 22:00:00 -4.8 5 Sudoeste 6 Sudoeste 0 -- -- 92
2021-01-06 21:00:00 -5.5 2 Sudoeste 7 Sudoeste 0 -- -- 81
2021-01-06 20:00:00 -5.1 3 Oeste 6 Sudoeste 0 -- -- 79
2021-01-06 19:00:00 -4.7 3 Sudoeste 6 Oeste 0 -- -- 81
2021-01-06 18:00:00 -2.9 0 Calma 9 Nordeste 0 -- -- 77
2021-01-06 17:00:00 -1.9 7 Este 14 Este 0 -- -- 73
2021-01-06 16:00:00 -0.6 8 Nordeste 17 Este 0 -- -- 65
2021-01-06 15:00:00 1.3 12 Nordeste 19 Este 0 -- -- 57
2021-01-06 14:00:00 1.6 6 Sudeste 18 Este 0 -- -- 48
2021-01-06 13:00:00 1.3 4 Norte 13 Nordeste 0 -- -- 53
2021-01-06 12:00:00 0.4 3 Este 10 Este 0 -- -- 59
2021-01-06 11:00:00 -0.7 2 Este 6 Este 0 -- -- 64
2021-01-06 10:00:00 -3.6 4 Sudeste 11 Oeste 0 -- -- 73
2021-01-06 09:00:00 -5.8 3 Nordeste 20 Oeste 0 -- -- 81
2021-01-06 08:00:00 -6.8 9 Oeste 20 Oeste 0 -- -- 80
2021-01-06 07:00:00 -6.8 14 Oeste 21 Oeste 0 -- -- 81
2021-01-06 06:00:00 -6.3 13 Oeste 26 Oeste 0 -- -- 81
2021-01-06 05:00:00 -6.9 12 Oeste 17 Oeste 0 -- -- 86
2021-01-06 04:00:00 -7.7 12 Oeste 17 Oeste 0 -- -- 86
2021-01-06 03:00:00 -8 9 Oeste 21 Oeste 0 -- -- 87
2021-01-06 02:00:00 -7.4 10 Oeste 18 Oeste 0 -- -- 86
2021-01-06 01:00:00 -7.3 8 Oeste 13 Oeste 0 -- -- 85
2021-01-06 00:00:00 -8.4 4 Sudoeste 9 Sudoeste 0 -- -- 88
2021-01-05 23:00:00 -5.4 5 Oeste 14 Noroeste 0 -- -- 81
2021-01-05 22:00:00 -6.1 5 Noroeste 19 Oeste 0 -- -- 86
2021-01-05 21:00:00 -7.5 13 Oeste 18 Oeste 0 -- -- 88
2021-01-05 20:00:00 -7.7 5 Oeste 13 Oeste 0 -- -- 87
2021-01-05 19:00:00 -7.6 7 Sudoeste 10 Sudoeste 0 -- -- 85
2021-01-05 18:00:00 -5.2 5 Oeste 20 Oeste 0 -- -- 74
2021-01-05 17:00:00 -2 8 Oeste 16 Noroeste 0 -- -- 63
2021-01-05 16:00:00 -1.3 9 Noroeste 33 Noroeste 0 -- -- 62
2021-01-05 15:00:00 -1.8 23 Oeste 37 Oeste 0 -- -- 62
2021-01-05 14:00:00 -1.5 16 Oeste 27 Oeste 0 -- -- 63
2021-01-05 13:00:00 -1.9 17 Oeste 26 Oeste 0 -- -- 66
2021-01-05 12:00:00 -1.1 8 Oeste 40 Oeste 0 -- -- 61
2021-01-05 11:00:00 -2.7 24 Oeste 56 Oeste 0 -- -- 67
2021-01-05 10:00:00 -4.5 35 Oeste 50 Noroeste 0 -- -- 74
2021-01-05 09:00:00 -5.6 37 Oeste 52 Oeste 0 -- -- 78
2021-01-05 08:00:00 -6.3 35 Oeste 60 Oeste 0 -- -- 81
2021-01-05 07:00:00 -6.4 33 Oeste 52 Oeste 0 -- -- 83
2021-01-05 06:00:00 -6.3 32 Oeste 51 Oeste 0 -- -- 82
2021-01-05 05:00:00 -6.3 31 Oeste 44 Oeste 0 -- -- 82
2021-01-05 04:00:00 -6 29 Oeste 48 Oeste 0 -- -- 81
2021-01-05 03:00:00 -6.1 28 Oeste 53 Oeste 0 -- -- 82
2021-01-05 02:00:00 -5.7 28 Oeste 52 Oeste 0 -- -- 81
2021-01-05 01:00:00 -5.3 24 Oeste 48 Oeste 0 -- -- 81
2021-01-05 00:00:00 -5.2 24 Oeste 42 Oeste 0 -- -- 81
2021-01-04 23:00:00 -5 29 Oeste 50 Oeste 0 -- -- 80
2021-01-04 22:00:00 -4.8 35 Oeste 55 Oeste 0 -- -- 78
2021-01-04 21:00:00 -4.9 10 Oeste 35 Oeste 0 -- -- 84
2021-01-04 20:00:00 -5.6 5 Oeste 13 Oeste 0 -- -- 79
2021-01-04 19:00:00 -5.8 3 Oeste 15 Noroeste 0 -- -- 76
2021-01-04 18:00:00 -4.6 4 Noroeste 33 Oeste 0 -- -- 74
2021-01-04 17:00:00 -3.1 18 Oeste 37 Sudoeste 0 -- -- 66
2021-01-04 16:00:00 -1.5 15 Oeste 42 Oeste 0 -- -- 61
2021-01-04 15:00:00 -1.3 19 Oeste 45 Noroeste 0 -- -- 60
2021-01-04 14:00:00 -2 31 Oeste 50 Oeste 0 -- -- 63
2021-01-04 13:00:00 -2 30 Oeste 50 Oeste 0 -- -- 64
2021-01-04 12:00:00 -1.9 25 Oeste 45 Oeste 0 -- -- 64
2021-01-04 11:00:00 -2.5 28 Oeste 51 Oeste 0 -- -- 68
2021-01-04 10:00:00 -3.3 30 Oeste 51 Oeste 0 -- -- 69
2021-01-04 09:00:00 -4.9 15 Oeste 31 Oeste 0 -- -- 79
2021-01-04 08:00:00 -5.6 7 Oeste 17 Oeste 0 -- -- 85
2021-01-04 07:00:00 -5 12 Oeste 27 Oeste 0 -- -- 83
2021-01-04 06:00:00 -4.9 8 Oeste 17 Oeste 0 -- -- 84
2021-01-04 05:00:00 -4.7 11 Oeste 47 Oeste 0 -- -- 85
2021-01-04 04:00:00 -4.2 26 Oeste 39 Oeste 0 -- -- 80
2021-01-04 03:00:00 -4.3 24 Oeste 40 Oeste 0 -- -- 77
2021-01-04 02:00:00 -4 26 Oeste 43 Sudoeste 0 -- -- 75
2021-01-04 01:00:00 -3.7 29 Oeste 56 Oeste 0 -- -- 74
2021-01-04 00:00:00 -3.6 32 Oeste 49 Oeste 0 -- -- 77
2021-01-03 23:00:00 -3.4 30 Oeste 50 Oeste 0 -- -- 75
2021-01-03 22:00:00 -3.3 32 Oeste 55 Oeste 0 -- -- 78
2021-01-03 21:00:00 -3.3 39 Oeste 57 Oeste 0 -- -- 80
2021-01-03 20:00:00 -3.3 33 Oeste 50 Oeste 0 -- -- 78
2021-01-03 19:00:00 -3.3 33 Oeste 59 Oeste 0 -- -- 79
2021-01-03 18:00:00 -3 34 Oeste 55 Sudoeste 0 -- -- 76
2021-01-03 17:00:00 -2.4 24 Oeste 52 Oeste 0 -- -- 75
2021-01-03 16:00:00 -1.9 35 Oeste 55 Oeste 0 -- -- 73
2021-01-03 15:00:00 -1.7 29 Oeste 55 Oeste 0 -- -- 73
2021-01-03 14:00:00 -2.8 29 Oeste 57 Oeste 0 -- -- 73
2021-01-03 13:00:00 -1.9 36 Oeste 66 Noroeste 0 -- -- 68
2021-01-03 12:00:00 -2.8 52 Oeste 72 Oeste 0 -- -- 68
2021-01-03 11:00:00 -2.9 44 Oeste 76 Oeste 0 -- -- 64
2021-01-03 10:00:00 -4.3 38 Noroeste 70 Noroeste 0 -- -- 75
2021-01-03 09:00:00 -5.3 45 Oeste 75 Oeste 0 -- -- 79
2021-01-03 08:00:00 -6.1 57 Oeste 83 Oeste 0 -- -- 80
2021-01-03 07:00:00 -6 51 Oeste 74 Oeste 0 -- -- 67
2021-01-03 06:00:00 -6.6 38 Oeste 67 Oeste 0 -- -- 66
2021-01-03 05:00:00 -6.4 49 Oeste 60 Oeste 0 -- -- 67
2021-01-03 04:00:00 -6.3 50 Oeste 72 Oeste 0 -- -- 68
2021-01-03 03:00:00 -6.4 42 Noroeste 70 Oeste 0 -- -- 72
2021-01-03 02:00:00 -6.3 44 Oeste 66 Noroeste 0 -- -- 76
2021-01-03 01:00:00 -6 48 Oeste 64 Oeste 0 -- -- 75
2021-01-03 00:00:00 -6 23 Noroeste 64 Oeste 0 -- -- 76
2021-01-02 23:00:00 -6 45 Oeste 72 Oeste 0 -- -- 75
2021-01-02 22:00:00 -6.1 53 Oeste 67 Oeste 0 -- -- 75
2021-01-02 21:00:00 -6.2 48 Oeste 73 Oeste 0 -- -- 74
2021-01-02 20:00:00 -6.1 47 Oeste 78 Oeste 0 -- -- 74
2021-01-02 19:00:00 -5.9 55 Oeste 80 Oeste 0 -- -- 77
2021-01-02 18:00:00 -5.6 51 Oeste 73 Oeste 0 -- -- 76
2021-01-02 17:00:00 -5.2 51 Oeste 72 Oeste 0 -- -- 76
2021-01-02 16:00:00 -4.4 43 Oeste 64 Oeste 0 -- -- 76
2021-01-02 15:00:00 -4.6 38 Oeste 53 Oeste 0 -- -- 85
2021-01-02 14:00:00 -4 39 Oeste 64 Noroeste 0 -- -- 88